sensor_id;sensor_type;location;lat;lon;timestamp;P1;durP1;ratioP1;P2;durP2;ratioP2
73487;SDS011;61721;42.206;25.320;2023-04-15T00:02:17;4.03;;;1.52;;
73487;SDS011;61721;42.206;25.320;2023-04-15T00:04:44;4.53;;;1.52;;
73487;SDS011;61721;42.206;25.320;2023-04-15T00:07:11;3.88;;;1.45;;
73487;SDS011;61721;42.206;25.320;2023-04-15T00:09:40;3.72;;;1.20;;
73487;SDS011;61721;42.206;25.320;2023-04-15T00:12:09;5.03;;;1.67;;
73487;SDS011;61721;42.206;25.320;2023-04-15T00:14:37;6.70;;;1.52;;
73487;SDS011;61721;42.206;25.320;2023-04-15T00:17:04;3.97;;;1.58;;
73487;SDS011;61721;42.206;25.320;2023-04-15T00:19:31;4.75;;;1.50;;
73487;SDS011;61721;42.206;25.320;2023-04-15T00:21:58;5.20;;;1.35;;
73487;SDS011;61721;42.206;25.320;2023-04-15T00:24:27;5.57;;;1.27;;
73487;SDS011;61721;42.206;25.320;2023-04-15T00:26:57;3.75;;;1.50;;
73487;SDS011;61721;42.206;25.320;2023-04-15T00:29:24;5.95;;;1.45;;
73487;SDS011;61721;42.206;25.320;2023-04-15T00:31:52;4.68;;;1.50;;
73487;SDS011;61721;42.206;25.320;2023-04-15T00:34:19;3.65;;;1.20;;
73487;SDS011;61721;42.206;25.320;2023-04-15T00:36:47;2.83;;;1.08;;
73487;SDS011;61721;42.206;25.320;2023-04-15T00:39:15;3.70;;;1.38;;
73487;SDS011;61721;42.206;25.320;2023-04-15T00:41:42;5.10;;;1.50;;
73487;SDS011;61721;42.206;25.320;2023-04-15T00:44:12;5.03;;;1.52;;
73487;SDS011;61721;42.206;25.320;2023-04-15T00:49:07;3.55;;;1.30;;
73487;SDS011;61721;42.206;25.320;2023-04-15T00:51:34;3.75;;;1.38;;
73487;SDS011;61721;42.206;25.320;2023-04-15T00:54:02;3.60;;;1.52;;
73487;SDS011;61721;42.206;25.320;2023-04-15T00:56:29;4.75;;;1.50;;
73487;SDS011;61721;42.206;25.320;2023-04-15T00:58:58;4.07;;;1.60;;
73487;SDS011;61721;42.206;25.320;2023-04-15T01:01:27;4.10;;;1.50;;
73487;SDS011;61721;42.206;25.320;2023-04-15T01:03:55;3.53;;;1.52;;
73487;SDS011;61721;42.206;25.320;2023-04-15T01:06:23;6.13;;;1.80;;
73487;SDS011;61721;42.206;25.320;2023-04-15T01:08:51;4.25;;;1.50;;
73487;SDS011;61721;42.206;25.320;2023-04-15T01:11:18;3.78;;;1.50;;
73487;SDS011;61721;42.206;25.320;2023-04-15T01:13:46;4.13;;;2.15;;
73487;SDS011;61721;42.206;25.320;2023-04-15T01:16:13;4.18;;;1.55;;
73487;SDS011;61721;42.206;25.320;2023-04-15T01:18:43;3.92;;;1.52;;
73487;SDS011;61721;42.206;25.320;2023-04-15T01:21:11;5.28;;;2.00;;
73487;SDS011;61721;42.206;25.320;2023-04-15T01:23:39;5.60;;;2.33;;
73487;SDS011;61721;42.206;25.320;2023-04-15T01:26:07;6.93;;;1.75;;
73487;SDS011;61721;42.206;25.320;2023-04-15T01:28:35;5.68;;;2.05;;
73487;SDS011;61721;42.206;25.320;2023-04-15T01:31:06;5.57;;;1.80;;
73487;SDS011;61721;42.206;25.320;2023-04-15T01:33:35;7.38;;;1.70;;
73487;SDS011;61721;42.206;25.320;2023-04-15T01:36:02;4.10;;;1.88;;
73487;SDS011;61721;42.206;25.320;2023-04-15T01:38:30;5.95;;;2.55;;
73487;SDS011;61721;42.206;25.320;2023-04-15T01:40:58;5.80;;;2.55;;
73487;SDS011;61721;42.206;25.320;2023-04-15T01:43:27;5.18;;;2.38;;
73487;SDS011;61721;42.206;25.320;2023-04-15T01:45:55;5.80;;;2.42;;
73487;SDS011;61721;42.206;25.320;2023-04-15T01:48:22;6.03;;;2.30;;
73487;SDS011;61721;42.206;25.320;2023-04-15T01:50:49;9.27;;;2.30;;
73487;SDS011;61721;42.206;25.320;2023-04-15T01:53:17;6.25;;;2.38;;
73487;SDS011;61721;42.206;25.320;2023-04-15T01:55:44;7.78;;;2.15;;
73487;SDS011;61721;42.206;25.320;2023-04-15T01:58:12;6.85;;;2.65;;
73487;SDS011;61721;42.206;25.320;2023-04-15T02:00:40;5.60;;;2.03;;
73487;SDS011;61721;42.206;25.320;2023-04-15T02:03:09;4.57;;;1.88;;
73487;SDS011;61721;42.206;25.320;2023-04-15T02:05:36;4.68;;;1.95;;
73487;SDS011;61721;42.206;25.320;2023-04-15T02:08:03;5.18;;;1.90;;
73487;SDS011;61721;42.206;25.320;2023-04-15T02:10:30;5.85;;;2.22;;
73487;SDS011;61721;42.206;25.320;2023-04-15T02:12:57;4.60;;;1.77;;
73487;SDS011;61721;42.206;25.320;2023-04-15T02:15:24;4.45;;;1.75;;
73487;SDS011;61721;42.206;25.320;2023-04-15T02:17:53;5.38;;;1.90;;
73487;SDS011;61721;42.206;25.320;2023-04-15T02:20:21;8.00;;;2.80;;
73487;SDS011;61721;42.206;25.320;2023-04-15T02:22:48;6.13;;;2.30;;
73487;SDS011;61721;42.206;25.320;2023-04-15T02:25:16;4.75;;;2.30;;
73487;SDS011;61721;42.206;25.320;2023-04-15T02:27:44;5.38;;;2.38;;
73487;SDS011;61721;42.206;25.320;2023-04-15T02:30:11;4.95;;;2.28;;
73487;SDS011;61721;42.206;25.320;2023-04-15T02:32:39;5.35;;;2.20;;
73487;SDS011;61721;42.206;25.320;2023-04-15T02:35:10;6.88;;;2.20;;
73487;SDS011;61721;42.206;25.320;2023-04-15T02:37:37;4.30;;;1.83;;
73487;SDS011;61721;42.206;25.320;2023-04-15T02:40:08;7.03;;;1.92;;
73487;SDS011;61721;42.206;25.320;2023-04-15T02:42:37;4.07;;;1.80;;
73487;SDS011;61721;42.206;25.320;2023-04-15T02:45:05;4.65;;;2.03;;
73487;SDS011;61721;42.206;25.320;2023-04-15T02:47:33;5.03;;;1.80;;
73487;SDS011;61721;42.206;25.320;2023-04-15T02:50:01;5.00;;;2.00;;
73487;SDS011;61721;42.206;25.320;2023-04-15T02:52:30;4.93;;;1.90;;
73487;SDS011;61721;42.206;25.320;2023-04-15T02:54:57;9.32;;;2.35;;
73487;SDS011;61721;42.206;25.320;2023-04-15T02:57:27;6.50;;;2.17;;
73487;SDS011;61721;42.206;25.320;2023-04-15T02:59:55;5.65;;;2.13;;
73487;SDS011;61721;42.206;25.320;2023-04-15T03:02:23;6.30;;;1.98;;
73487;SDS011;61721;42.206;25.320;2023-04-15T03:04:51;5.78;;;2.45;;
73487;SDS011;61721;42.206;25.320;2023-04-15T03:09:50;5.80;;;2.03;;
73487;SDS011;61721;42.206;25.320;2023-04-15T03:12:17;6.85;;;1.98;;
73487;SDS011;61721;42.206;25.320;2023-04-15T03:14:44;5.28;;;1.92;;
73487;SDS011;61721;42.206;25.320;2023-04-15T03:17:11;5.50;;;2.08;;
73487;SDS011;61721;42.206;25.320;2023-04-15T03:19:38;5.35;;;2.10;;
73487;SDS011;61721;42.206;25.320;2023-04-15T03:22:06;8.13;;;2.13;;
73487;SDS011;61721;42.206;25.320;2023-04-15T03:24:33;5.85;;;2.03;;
73487;SDS011;61721;42.206;25.320;2023-04-15T03:27:01;7.45;;;2.30;;
73487;SDS011;61721;42.206;25.320;2023-04-15T03:29:30;9.57;;;2.47;;
73487;SDS011;61721;42.206;25.320;2023-04-15T03:31:57;5.60;;;2.22;;
73487;SDS011;61721;42.206;25.320;2023-04-15T03:34:24;5.07;;;2.10;;
73487;SDS011;61721;42.206;25.320;2023-04-15T03:36:52;5.72;;;1.75;;
73487;SDS011;61721;42.206;25.320;2023-04-15T03:39:19;4.25;;;1.80;;
73487;SDS011;61721;42.206;25.320;2023-04-15T03:41:46;5.18;;;1.75;;
73487;SDS011;61721;42.206;25.320;2023-04-15T03:44:14;4.82;;;2.03;;
73487;SDS011;61721;42.206;25.320;2023-04-15T03:46:42;6.70;;;2.10;;
73487;SDS011;61721;42.206;25.320;2023-04-15T03:49:09;6.85;;;2.00;;
73487;SDS011;61721;42.206;25.320;2023-04-15T03:51:36;5.25;;;2.08;;
73487;SDS011;61721;42.206;25.320;2023-04-15T03:54:04;5.03;;;2.20;;
73487;SDS011;61721;42.206;25.320;2023-04-15T03:56:31;7.80;;;2.17;;
73487;SDS011;61721;42.206;25.320;2023-04-15T03:58:58;4.72;;;2.22;;
73487;SDS011;61721;42.206;25.320;2023-04-15T04:01:27;4.90;;;2.05;;
73487;SDS011;61721;42.206;25.320;2023-04-15T04:03:54;5.18;;;2.17;;
73487;SDS011;61721;42.206;25.320;2023-04-15T04:06:21;5.60;;;2.38;;
73487;SDS011;61721;42.206;25.320;2023-04-15T04:08:49;7.93;;;2.72;;
73487;SDS011;61721;42.206;25.320;2023-04-15T04:11:16;7.15;;;2.72;;
73487;SDS011;61721;42.206;25.320;2023-04-15T04:13:44;5.43;;;3.00;;
73487;SDS011;61721;42.206;25.320;2023-04-15T04:16:11;7.70;;;3.17;;
73487;SDS011;61721;42.206;25.320;2023-04-15T04:18:39;7.55;;;2.67;;
73487;SDS011;61721;42.206;25.320;2023-04-15T04:21:06;5.78;;;2.58;;
73487;SDS011;61721;42.206;25.320;2023-04-15T04:23:34;6.30;;;2.72;;
73487;SDS011;61721;42.206;25.320;2023-04-15T04:26:02;4.85;;;2.40;;
73487;SDS011;61721;42.206;25.320;2023-04-15T04:28:29;4.95;;;2.00;;
73487;SDS011;61721;42.206;25.320;2023-04-15T04:30:56;5.72;;;2.13;;
73487;SDS011;61721;42.206;25.320;2023-04-15T04:33:26;6.78;;;2.58;;
73487;SDS011;61721;42.206;25.320;2023-04-15T04:35:55;6.38;;;2.70;;
73487;SDS011;61721;42.206;25.320;2023-04-15T04:38:22;5.93;;;2.53;;
73487;SDS011;61721;42.206;25.320;2023-04-15T04:40:49;5.90;;;2.60;;
73487;SDS011;61721;42.206;25.320;2023-04-15T04:43:16;5.40;;;2.25;;
73487;SDS011;61721;42.206;25.320;2023-04-15T04:45:43;4.95;;;2.28;;
73487;SDS011;61721;42.206;25.320;2023-04-15T04:48:11;5.25;;;2.30;;
73487;SDS011;61721;42.206;25.320;2023-04-15T04:50:38;4.50;;;2.25;;
73487;SDS011;61721;42.206;25.320;2023-04-15T04:53:06;8.25;;;2.33;;
73487;SDS011;61721;42.206;25.320;2023-04-15T04:55:34;6.22;;;2.30;;
73487;SDS011;61721;42.206;25.320;2023-04-15T04:58:01;6.95;;;2.58;;
73487;SDS011;61721;42.206;25.320;2023-04-15T05:00:29;6.60;;;2.53;;
73487;SDS011;61721;42.206;25.320;2023-04-15T05:02:56;7.50;;;2.78;;
73487;SDS011;61721;42.206;25.320;2023-04-15T05:05:23;5.93;;;2.70;;
73487;SDS011;61721;42.206;25.320;2023-04-15T05:07:50;8.52;;;3.38;;
73487;SDS011;61721;42.206;25.320;2023-04-15T05:10:19;11.25;;;3.38;;
73487;SDS011;61721;42.206;25.320;2023-04-15T05:12:46;6.65;;;3.17;;
73487;SDS011;61721;42.206;25.320;2023-04-15T05:15:13;9.18;;;3.60;;
73487;SDS011;61721;42.206;25.320;2023-04-15T05:17:40;7.60;;;3.10;;
73487;SDS011;61721;42.206;25.320;2023-04-15T05:20:08;10.20;;;3.72;;
73487;SDS011;61721;42.206;25.320;2023-04-15T05:22:36;14.32;;;3.58;;
73487;SDS011;61721;42.206;25.320;2023-04-15T05:25:03;4.75;;;2.83;;
73487;SDS011;61721;42.206;25.320;2023-04-15T05:27:33;6.30;;;3.25;;
73487;SDS011;61721;42.206;25.320;2023-04-15T05:30:01;7.07;;;3.38;;
73487;SDS011;61721;42.206;25.320;2023-04-15T05:32:28;11.43;;;5.30;;
73487;SDS011;61721;42.206;25.320;2023-04-15T05:34:55;12.98;;;6.82;;
73487;SDS011;61721;42.206;25.320;2023-04-15T05:37:22;8.60;;;4.97;;
73487;SDS011;61721;42.206;25.320;2023-04-15T05:39:49;9.00;;;5.22;;
73487;SDS011;61721;42.206;25.320;2023-04-15T05:42:16;9.27;;;4.03;;
73487;SDS011;61721;42.206;25.320;2023-04-15T05:44:45;7.35;;;3.50;;
73487;SDS011;61721;42.206;25.320;2023-04-15T05:47:12;9.20;;;3.88;;
73487;SDS011;61721;42.206;25.320;2023-04-15T05:49:40;10.18;;;4.70;;
73487;SDS011;61721;42.206;25.320;2023-04-15T05:52:07;11.60;;;5.20;;
73487;SDS011;61721;42.206;25.320;2023-04-15T05:54:34;16.92;;;7.95;;
73487;SDS011;61721;42.206;25.320;2023-04-15T05:57:01;15.00;;;8.38;;
73487;SDS011;61721;42.206;25.320;2023-04-15T05:59:29;20.42;;;10.13;;
73487;SDS011;61721;42.206;25.320;2023-04-15T06:01:57;19.15;;;10.10;;
73487;SDS011;61721;42.206;25.320;2023-04-15T06:04:24;20.65;;;10.80;;
73487;SDS011;61721;42.206;25.320;2023-04-15T06:06:52;22.90;;;13.23;;
73487;SDS011;61721;42.206;25.320;2023-04-15T06:09:19;22.27;;;12.20;;
73487;SDS011;61721;42.206;25.320;2023-04-15T06:11:46;19.10;;;12.32;;
73487;SDS011;61721;42.206;25.320;2023-04-15T06:14:13;21.70;;;11.63;;
73487;SDS011;61721;42.206;25.320;2023-04-15T06:16:42;16.90;;;10.43;;
73487;SDS011;61721;42.206;25.320;2023-04-15T06:19:13;17.08;;;10.38;;
73487;SDS011;61721;42.206;25.320;2023-04-15T06:21:40;15.20;;;9.80;;
73487;SDS011;61721;42.206;25.320;2023-04-15T06:24:07;14.05;;;9.10;;
73487;SDS011;61721;42.206;25.320;2023-04-15T06:26:35;15.25;;;8.23;;
73487;SDS011;61721;42.206;25.320;2023-04-15T06:29:02;12.27;;;8.00;;
73487;SDS011;61721;42.206;25.320;2023-04-15T06:31:29;15.10;;;8.25;;
73487;SDS011;61721;42.206;25.320;2023-04-15T06:33:57;12.90;;;7.90;;
73487;SDS011;61721;42.206;25.320;2023-04-15T06:36:26;13.02;;;8.77;;
73487;SDS011;61721;42.206;25.320;2023-04-15T06:38:53;14.80;;;8.45;;
73487;SDS011;61721;42.206;25.320;2023-04-15T06:41:20;15.35;;;7.72;;
73487;SDS011;61721;42.206;25.320;2023-04-15T06:43:48;13.18;;;6.80;;
73487;SDS011;61721;42.206;25.320;2023-04-15T06:46:16;10.70;;;6.68;;
73487;SDS011;61721;42.206;25.320;2023-04-15T06:48:43;9.73;;;6.30;;
73487;SDS011;61721;42.206;25.320;2023-04-15T06:51:10;12.18;;;7.38;;
73487;SDS011;61721;42.206;25.320;2023-04-15T06:53:40;10.50;;;6.85;;
73487;SDS011;61721;42.206;25.320;2023-04-15T06:56:08;11.88;;;6.57;;
73487;SDS011;61721;42.206;25.320;2023-04-15T06:58:35;13.00;;;7.55;;
73487;SDS011;61721;42.206;25.320;2023-04-15T07:01:02;14.00;;;7.60;;
73487;SDS011;61721;42.206;25.320;2023-04-15T07:03:31;12.20;;;7.57;;
73487;SDS011;61721;42.206;25.320;2023-04-15T07:05:58;12.55;;;7.18;;
73487;SDS011;61721;42.206;25.320;2023-04-15T07:08:25;13.20;;;7.15;;
73487;SDS011;61721;42.206;25.320;2023-04-15T07:10:54;15.10;;;7.72;;
73487;SDS011;61721;42.206;25.320;2023-04-15T07:13:21;13.90;;;7.90;;
73487;SDS011;61721;42.206;25.320;2023-04-15T07:15:48;17.95;;;8.23;;
73487;SDS011;61721;42.206;25.320;2023-04-15T07:18:16;16.30;;;8.07;;
73487;SDS011;61721;42.206;25.320;2023-04-15T07:20:43;13.07;;;7.88;;
73487;SDS011;61721;42.206;25.320;2023-04-15T07:23:10;13.57;;;7.63;;
73487;SDS011;61721;42.206;25.320;2023-04-15T07:25:37;15.70;;;7.88;;
73487;SDS011;61721;42.206;25.320;2023-04-15T07:28:06;13.75;;;5.72;;
73487;SDS011;61721;42.206;25.320;2023-04-15T07:30:33;12.13;;;7.00;;
73487;SDS011;61721;42.206;25.320;2023-04-15T07:33:00;10.93;;;6.28;;
73487;SDS011;61721;42.206;25.320;2023-04-15T07:35:28;12.75;;;5.63;;
73487;SDS011;61721;42.206;25.320;2023-04-15T07:37:55;8.60;;;4.60;;
73487;SDS011;61721;42.206;25.320;2023-04-15T07:40:22;8.50;;;4.22;;
73487;SDS011;61721;42.206;25.320;2023-04-15T07:42:50;8.95;;;5.03;;
73487;SDS011;61721;42.206;25.320;2023-04-15T07:45:19;8.77;;;4.60;;
73487;SDS011;61721;42.206;25.320;2023-04-15T07:47:48;8.55;;;4.40;;
73487;SDS011;61721;42.206;25.320;2023-04-15T07:50:15;9.02;;;5.20;;
73487;SDS011;61721;42.206;25.320;2023-04-15T07:52:44;11.65;;;5.85;;
73487;SDS011;61721;42.206;25.320;2023-04-15T07:55:11;11.30;;;5.95;;
73487;SDS011;61721;42.206;25.320;2023-04-15T07:57:38;10.40;;;6.07;;
73487;SDS011;61721;42.206;25.320;2023-04-15T08:00:06;9.30;;;5.38;;
73487;SDS011;61721;42.206;25.320;2023-04-15T08:02:35;11.32;;;5.65;;
73487;SDS011;61721;42.206;25.320;2023-04-15T08:05:03;9.30;;;4.88;;
73487;SDS011;61721;42.206;25.320;2023-04-15T08:07:31;8.40;;;4.90;;
73487;SDS011;61721;42.206;25.320;2023-04-15T08:09:59;8.90;;;4.55;;
73487;SDS011;61721;42.206;25.320;2023-04-15T08:12:26;9.30;;;4.40;;
73487;SDS011;61721;42.206;25.320;2023-04-15T08:14:54;9.95;;;4.07;;
73487;SDS011;61721;42.206;25.320;2023-04-15T08:17:21;8.00;;;3.97;;
73487;SDS011;61721;42.206;25.320;2023-04-15T08:19:50;8.18;;;3.83;;
73487;SDS011;61721;42.206;25.320;2023-04-15T08:22:18;8.60;;;3.45;;
73487;SDS011;61721;42.206;25.320;2023-04-15T08:24:45;9.30;;;4.72;;
73487;SDS011;61721;42.206;25.320;2023-04-15T08:27:12;7.15;;;3.25;;
73487;SDS011;61721;42.206;25.320;2023-04-15T08:29:39;5.20;;;2.60;;
73487;SDS011;61721;42.206;25.320;2023-04-15T08:32:06;6.45;;;3.25;;
73487;SDS011;61721;42.206;25.320;2023-04-15T08:34:34;5.68;;;3.35;;
73487;SDS011;61721;42.206;25.320;2023-04-15T08:37:02;5.75;;;3.17;;
73487;SDS011;61721;42.206;25.320;2023-04-15T08:39:30;6.70;;;2.92;;
73487;SDS011;61721;42.206;25.320;2023-04-15T08:41:59;7.55;;;2.70;;
73487;SDS011;61721;42.206;25.320;2023-04-15T08:44:28;6.18;;;3.00;;
73487;SDS011;61721;42.206;25.320;2023-04-15T08:46:58;6.15;;;2.60;;
73487;SDS011;61721;42.206;25.320;2023-04-15T08:49:28;6.40;;;2.60;;
73487;SDS011;61721;42.206;25.320;2023-04-15T08:51:57;7.85;;;3.05;;
73487;SDS011;61721;42.206;25.320;2023-04-15T08:54:27;7.35;;;2.50;;
73487;SDS011;61721;42.206;25.320;2023-04-15T08:56:54;6.07;;;2.67;;
73487;SDS011;61721;42.206;25.320;2023-04-15T08:59:24;6.70;;;2.35;;
73487;SDS011;61721;42.206;25.320;2023-04-15T09:01:52;13.07;;;2.53;;
73487;SDS011;61721;42.206;25.320;2023-04-15T09:04:20;6.43;;;2.63;;
73487;SDS011;61721;42.206;25.320;2023-04-15T09:06:48;5.80;;;2.17;;
73487;SDS011;61721;42.206;25.320;2023-04-15T09:09:16;10.52;;;2.60;;
73487;SDS011;61721;42.206;25.320;2023-04-15T09:11:45;7.25;;;2.35;;
73487;SDS011;61721;42.206;25.320;2023-04-15T09:14:14;7.32;;;2.25;;
73487;SDS011;61721;42.206;25.320;2023-04-15T09:16:57;8.40;;;2.35;;
73487;SDS011;61721;42.206;25.320;2023-04-15T09:19:26;3.97;;;1.73;;
73487;SDS011;61721;42.206;25.320;2023-04-15T09:21:54;8.00;;;2.22;;
73487;SDS011;61721;42.206;25.320;2023-04-15T09:24:22;5.55;;;1.70;;
73487;SDS011;61721;42.206;25.320;2023-04-15T09:26:52;4.47;;;1.73;;
73487;SDS011;61721;42.206;25.320;2023-04-15T09:29:21;5.25;;;1.83;;
73487;SDS011;61721;42.206;25.320;2023-04-15T09:31:51;3.30;;;1.52;;
73487;SDS011;61721;42.206;25.320;2023-04-15T09:34:18;4.30;;;1.63;;
73487;SDS011;61721;42.206;25.320;2023-04-15T09:36:53;9.80;;;1.52;;
73487;SDS011;61721;42.206;25.320;2023-04-15T09:39:23;5.47;;;1.63;;
73487;SDS011;61721;42.206;25.320;2023-04-15T09:44:36;5.63;;;2.05;;
73487;SDS011;61721;42.206;25.320;2023-04-15T09:47:03;5.20;;;1.92;;
73487;SDS011;61721;42.206;25.320;2023-04-15T09:49:31;4.35;;;1.77;;
73487;SDS011;61721;42.206;25.320;2023-04-15T09:51:59;6.38;;;1.70;;
73487;SDS011;61721;42.206;25.320;2023-04-15T09:54:33;6.03;;;1.60;;
73487;SDS011;61721;42.206;25.320;2023-04-15T09:57:05;6.22;;;1.77;;
73487;SDS011;61721;42.206;25.320;2023-04-15T09:59:35;4.78;;;1.77;;
73487;SDS011;61721;42.206;25.320;2023-04-15T10:02:03;5.35;;;2.10;;
73487;SDS011;61721;42.206;25.320;2023-04-15T10:04:32;6.80;;;1.40;;
73487;SDS011;61721;42.206;25.320;2023-04-15T10:07:02;6.15;;;2.00;;
73487;SDS011;61721;42.206;25.320;2023-04-15T10:09:30;4.80;;;1.60;;
73487;SDS011;61721;42.206;25.320;2023-04-15T10:11:59;4.97;;;1.90;;
73487;SDS011;61721;42.206;25.320;2023-04-15T10:14:27;5.05;;;1.55;;
73487;SDS011;61721;42.206;25.320;2023-04-15T10:17:01;5.68;;;1.77;;
73487;SDS011;61721;42.206;25.320;2023-04-15T10:19:32;5.78;;;1.58;;
73487;SDS011;61721;42.206;25.320;2023-04-15T10:22:02;5.45;;;2.15;;
73487;SDS011;61721;42.206;25.320;2023-04-15T10:24:30;6.28;;;1.80;;
73487;SDS011;61721;42.206;25.320;2023-04-15T10:27:04;4.68;;;1.50;;
73487;SDS011;61721;42.206;25.320;2023-04-15T10:29:32;5.93;;;1.67;;
73487;SDS011;61721;42.206;25.320;2023-04-15T10:32:01;7.28;;;1.92;;
73487;SDS011;61721;42.206;25.320;2023-04-15T10:34:47;4.40;;;1.50;;
73487;SDS011;61721;42.206;25.320;2023-04-15T10:37:19;5.00;;;1.67;;
73487;SDS011;61721;42.206;25.320;2023-04-15T10:39:47;4.55;;;1.52;;
73487;SDS011;61721;42.206;25.320;2023-04-15T10:42:15;4.60;;;1.50;;
73487;SDS011;61721;42.206;25.320;2023-04-15T10:44:43;6.30;;;1.60;;
73487;SDS011;61721;42.206;25.320;2023-04-15T10:47:17;4.75;;;1.65;;
73487;SDS011;61721;42.206;25.320;2023-04-15T10:49:47;4.82;;;1.65;;
73487;SDS011;61721;42.206;25.320;2023-04-15T10:54:44;6.03;;;1.80;;
73487;SDS011;61721;42.206;25.320;2023-04-15T10:57:15;5.10;;;1.52;;
73487;SDS011;61721;42.206;25.320;2023-04-15T11:00:01;6.63;;;2.03;;
73487;SDS011;61721;42.206;25.320;2023-04-15T11:02:44;4.68;;;1.92;;
73487;SDS011;61721;42.206;25.320;2023-04-15T11:05:12;5.85;;;1.60;;
73487;SDS011;61721;42.206;25.320;2023-04-15T11:07:47;4.32;;;1.73;;
73487;SDS011;61721;42.206;25.320;2023-04-15T11:15:47;5.93;;;1.30;;
73487;SDS011;61721;42.206;25.320;2023-04-15T11:18:18;5.78;;;1.40;;
73487;SDS011;61721;42.206;25.320;2023-04-15T11:20:47;5.03;;;1.33;;
73487;SDS011;61721;42.206;25.320;2023-04-15T11:23:26;5.28;;;1.48;;
73487;SDS011;61721;42.206;25.320;2023-04-15T11:25:56;4.13;;;1.20;;
73487;SDS011;61721;42.206;25.320;2023-04-15T11:28:25;6.53;;;1.30;;
73487;SDS011;61721;42.206;25.320;2023-04-15T11:30:53;4.78;;;1.30;;
73487;SDS011;61721;42.206;25.320;2023-04-15T11:33:22;4.15;;;1.30;;
73487;SDS011;61721;42.206;25.320;2023-04-15T11:35:51;4.15;;;1.20;;
73487;SDS011;61721;42.206;25.320;2023-04-15T11:38:20;6.65;;;1.00;;
73487;SDS011;61721;42.206;25.320;2023-04-15T11:40:47;4.95;;;1.20;;
73487;SDS011;61721;42.206;25.320;2023-04-15T11:43:18;2.70;;;1.00;;
73487;SDS011;61721;42.206;25.320;2023-04-15T11:45:49;4.03;;;1.23;;
73487;SDS011;61721;42.206;25.320;2023-04-15T11:48:18;3.90;;;1.30;;
73487;SDS011;61721;42.206;25.320;2023-04-15T11:50:51;3.95;;;1.20;;
73487;SDS011;61721;42.206;25.320;2023-04-15T11:53:20;5.82;;;1.90;;
73487;SDS011;61721;42.206;25.320;2023-04-15T11:55:48;4.38;;;1.40;;
73487;SDS011;61721;42.206;25.320;2023-04-15T11:58:18;5.47;;;1.33;;
73487;SDS011;61721;42.206;25.320;2023-04-15T12:00:47;4.72;;;1.20;;
73487;SDS011;61721;42.206;25.320;2023-04-15T12:03:17;3.50;;;1.50;;
73487;SDS011;61721;42.206;25.320;2023-04-15T12:11:41;5.15;;;1.30;;
73487;SDS011;61721;42.206;25.320;2023-04-15T12:14:20;3.05;;;0.82;;
73487;SDS011;61721;42.206;25.320;2023-04-15T12:16:50;4.50;;;1.25;;
73487;SDS011;61721;42.206;25.320;2023-04-15T12:19:22;3.35;;;1.00;;
73487;SDS011;61721;42.206;25.320;2023-04-15T12:21:52;4.38;;;1.17;;
73487;SDS011;61721;42.206;25.320;2023-04-15T12:24:23;2.40;;;1.00;;
73487;SDS011;61721;42.206;25.320;2023-04-15T12:26:50;4.57;;;1.23;;
73487;SDS011;61721;42.206;25.320;2023-04-15T12:29:19;6.78;;;1.27;;
73487;SDS011;61721;42.206;25.320;2023-04-15T12:31:50;4.13;;;1.10;;
73487;SDS011;61721;42.206;25.320;2023-04-15T12:34:25;4.45;;;1.30;;
73487;SDS011;61721;42.206;25.320;2023-04-15T12:36:55;5.35;;;1.30;;
73487;SDS011;61721;42.206;25.320;2023-04-15T12:41:50;5.18;;;1.23;;
73487;SDS011;61721;42.206;25.320;2023-04-15T12:44:18;4.47;;;1.10;;
73487;SDS011;61721;42.206;25.320;2023-04-15T12:46:46;7.03;;;1.42;;
73487;SDS011;61721;42.206;25.320;2023-04-15T12:49:14;5.05;;;1.25;;
73487;SDS011;61721;42.206;25.320;2023-04-15T12:51:44;3.42;;;1.23;;
73487;SDS011;61721;42.206;25.320;2023-04-15T12:54:14;5.53;;;1.08;;
73487;SDS011;61721;42.206;25.320;2023-04-15T12:56:41;4.00;;;1.08;;
73487;SDS011;61721;42.206;25.320;2023-04-15T12:59:09;3.70;;;1.05;;
73487;SDS011;61721;42.206;25.320;2023-04-15T13:01:37;3.38;;;1.02;;
73487;SDS011;61721;42.206;25.320;2023-04-15T13:04:04;3.28;;;1.08;;
73487;SDS011;61721;42.206;25.320;2023-04-15T13:06:32;4.63;;;1.40;;
73487;SDS011;61721;42.206;25.320;2023-04-15T13:09:19;5.03;;;1.42;;
73487;SDS011;61721;42.206;25.320;2023-04-15T13:11:50;3.78;;;1.30;;
73487;SDS011;61721;42.206;25.320;2023-04-15T13:14:18;8.95;;;1.58;;
73487;SDS011;61721;42.206;25.320;2023-04-15T13:16:45;4.95;;;1.42;;
73487;SDS011;61721;42.206;25.320;2023-04-15T13:19:13;5.05;;;1.30;;
73487;SDS011;61721;42.206;25.320;2023-04-15T13:21:40;8.77;;;2.03;;
73487;SDS011;61721;42.206;25.320;2023-04-15T13:24:09;7.15;;;1.80;;
73487;SDS011;61721;42.206;25.320;2023-04-15T13:26:37;7.72;;;2.17;;
73487;SDS011;61721;42.206;25.320;2023-04-15T13:29:04;4.00;;;1.60;;
73487;SDS011;61721;42.206;25.320;2023-04-15T13:31:32;7.80;;;2.20;;
73487;SDS011;61721;42.206;25.320;2023-04-15T13:33:59;6.80;;;1.80;;
73487;SDS011;61721;42.206;25.320;2023-04-15T13:36:26;7.10;;;1.80;;
73487;SDS011;61721;42.206;25.320;2023-04-15T13:38:53;6.45;;;2.55;;
73487;SDS011;61721;42.206;25.320;2023-04-15T13:41:22;5.60;;;2.20;;
73487;SDS011;61721;42.206;25.320;2023-04-15T13:43:50;8.70;;;1.83;;
73487;SDS011;61721;42.206;25.320;2023-04-15T13:46:18;5.68;;;2.00;;
73487;SDS011;61721;42.206;25.320;2023-04-15T13:48:45;5.53;;;2.17;;
73487;SDS011;61721;42.206;25.320;2023-04-15T13:51:12;6.85;;;1.88;;
73487;SDS011;61721;42.206;25.320;2023-04-15T13:53:39;4.97;;;1.73;;
73487;SDS011;61721;42.206;25.320;2023-04-15T13:56:06;8.02;;;2.60;;
73487;SDS011;61721;42.206;25.320;2023-04-15T13:58:34;4.65;;;1.80;;
73487;SDS011;61721;42.206;25.320;2023-04-15T14:01:04;7.05;;;1.88;;
73487;SDS011;61721;42.206;25.320;2023-04-15T14:03:32;4.80;;;1.95;;
73487;SDS011;61721;42.206;25.320;2023-04-15T14:06:00;4.28;;;1.65;;
73487;SDS011;61721;42.206;25.320;2023-04-15T22:05:13;5.18;;;1.92;;
73487;SDS011;61721;42.206;25.320;2023-04-15T22:05:47;5.72;;;1.80;;
73487;SDS011;61721;42.206;25.320;2023-04-15T22:06:18;6.65;;;1.98;;
73487;SDS011;61721;42.206;25.320;2023-04-15T22:06:49;5.15;;;1.90;;
73487;SDS011;61721;42.206;25.320;2023-04-15T22:07:24;5.32;;;1.80;;
73487;SDS011;61721;42.206;25.320;2023-04-15T22:07:56;4.88;;;1.73;;
73487;SDS011;61721;42.206;25.320;2023-04-15T22:08:28;3.88;;;1.48;;
73487;SDS011;61721;42.206;25.320;2023-04-15T22:09:02;5.35;;;1.85;;
73487;SDS011;61721;42.206;25.320;2023-04-15T22:09:33;6.15;;;1.77;;
73487;SDS011;61721;42.206;25.320;2023-04-15T22:10:05;4.43;;;1.60;;
73487;SDS011;61721;42.206;25.320;2023-04-15T22:10:36;4.88;;;1.60;;
73487;SDS011;61721;42.206;25.320;2023-04-15T22:11:16;5.43;;;1.50;;
73487;SDS011;61721;42.206;25.320;2023-04-15T22:11:47;4.70;;;1.60;;
73487;SDS011;61721;42.206;25.320;2023-04-15T22:12:19;3.95;;;1.50;;
73487;SDS011;61721;42.206;25.320;2023-04-15T22:12:52;5.50;;;1.88;;
73487;SDS011;61721;42.206;25.320;2023-04-15T22:13:26;4.60;;;1.50;;
73487;SDS011;61721;42.206;25.320;2023-04-15T22:13:57;4.80;;;1.50;;
73487;SDS011;61721;42.206;25.320;2023-04-15T22:14:31;4.95;;;1.80;;
73487;SDS011;61721;42.206;25.320;2023-04-15T22:16:14;6.10;;;1.77;;
73487;SDS011;61721;42.206;25.320;2023-04-15T22:16:48;5.80;;;1.70;;
73487;SDS011;61721;42.206;25.320;2023-04-15T22:17:19;6.75;;;1.90;;
73487;SDS011;61721;42.206;25.320;2023-04-15T22:17:50;4.88;;;1.50;;
73487;SDS011;61721;42.206;25.320;2023-04-15T22:18:24;3.60;;;1.50;;
73487;SDS011;61721;42.206;25.320;2023-04-15T22:23:23;5.56;;;1.94;;